logo dgac
Martes 06 de Diciembre del 2022
Buscar por aerodromo o helipuerto
Ingrese nombre de aeródromo, localidad o designador OACI:

Aeródromo: General Freire (PUB) (SCIC)

Ubicación: Curicó, VII Región, Chile (34º 58' 00'' S, 71º 12' 59'' W) Ver ubicación en el mapa

Pistas

Luces
Orientación Dimensión Pendiente Superficie Resistencia APCH THR RWY PAPI
01/19 800 x 18 0,30 ASPH 7.500 kg No No No No
Horas de operación HJ
Elevación 220 m / 722 ft
Otra Información Adm : D.G.A.C.
Uso : PUB
Ubicado 3 km NE Curicó
TEL 752380353 Cel +56 9 6174 3695
email : aro.curico@dgac.gob.cl

Otra información ver AIP-Chile Volumen I AD 3.9-3.16-C

CCCM/FCCV Descargar
andera de Chile
Mapa de General Freire (PUB) (SCIC)

Último METAR

METAR SCIC 060800Z AUTO 17005KT //// R/////// // NCD 14/08 Q1014

Último TAF

No hay tafs registrados para este aeródromo

Últimas fotos cámaras

Imagen aerodromo General Freire (PUB) (SCIC) Norte tomada el 06-12-2022 08:28:27 Imagen aerodromo General Freire (PUB) (SCIC) Sur tomada el 06-12-2022 08:20:44

Último NOTAM

W2300/22 NOTAMN Q)SCEZ/QWPLW/IV/M/AW/000/100/3458S07113W001 A)SCIC B)2212010855 C)2301010031 D)BTN CCCM-FCCV E)PJE SECT AD ZONE ...D... CIRCULAR AREA 01NM CENTERED ON: 345759S/0711259W MANDATORY USE MODE A/C SSR, JUMP SUBJ ACCS CLR TEL 228364017 INSTRUCTIONS: CURICO INFO 126.7MHZ SANTIAGO RDR 123.8MHZ SANTIAGO INFO 135.4MHZ F)GND G)FL100